Time;durP1;ratioP1;P1;durP2;ratioP2;P2;SDS_P1;SDS_P2;PMS_P1;PMS_P2;Temp;Humidity;BMP_temperature;BMP_pressure;BME280_temperature;BME280_humidity;BME280_pressure;Samples;Min_cycle;Max_cycle;Signal;HPM_P1;HPM_P2
2022/07/03 00:00:42;;;;;;;1.50;1.40;;;17.50;99.90;;;;;;5062101;28;20457;-70
2022/07/03 00:03:07;;;;;;;2.35;1.58;;;17.40;99.90;;;;;;5050166;28;20029;-70
2022/07/03 00:05:34;;;;;;;3.50;1.60;;;17.40;99.90;;;;;;5068726;28;20037;-71
2022/07/03 00:07:59;;;;;;;3.83;1.42;;;17.40;99.90;;;;;;5073059;28;20028;-70
2022/07/03 00:10:25;;;;;;;2.53;1.65;;;17.30;99.90;;;;;;5066049;28;20037;-70
2022/07/03 00:12:51;;;;;;;2.83;1.90;;;17.30;99.90;;;;;;5052854;28;20035;-70
2022/07/03 00:15:16;;;;;;;2.65;1.88;;;17.30;99.90;;;;;;5054082;28;20381;-69
2022/07/03 00:17:42;;;;;;;1.98;1.83;;;17.20;99.90;;;;;;5051226;28;20449;-70
2022/07/03 00:20:08;;;;;;;1.80;1.70;;;17.20;99.90;;;;;;5053281;28;20489;-70
2022/07/03 00:22:40;;;;;;;2.33;1.80;;;17.10;99.90;;;;;;5070114;28;20086;-70
2022/07/03 00:25:10;;;;;;;1.92;1.70;;;17.10;99.90;;;;;;5061138;28;20069;-70
2022/07/03 00:27:38;;;;;;;2.00;1.80;;;17.10;99.90;;;;;;5052528;28;20017;-70
2022/07/03 00:30:05;;;;;;;3.03;2.10;;;17.00;99.90;;;;;;5057304;28;20061;-71
2022/07/03 00:32:30;;;;;;;2.08;1.77;;;17.00;99.90;;;;;;5052469;28;20036;-69
2022/07/03 00:34:57;;;;;;;2.45;1.52;;;17.00;99.90;;;;;;5043601;28;20021;-70
2022/07/03 00:37:24;;;;;;;2.33;1.92;;;17.00;99.90;;;;;;5052813;28;20453;-70
2022/07/03 00:39:50;;;;;;;1.98;1.70;;;17.00;99.90;;;;;;5052099;28;20032;-70
2022/07/03 00:42:17;;;;;;;1.63;1.52;;;16.90;99.90;;;;;;5052633;28;20037;-70
2022/07/03 00:44:48;;;;;;;2.20;1.63;;;16.90;99.90;;;;;;5050933;28;20033;-69
2022/07/03 00:47:14;;;;;;;2.20;1.90;;;16.80;99.90;;;;;;5057579;28;20033;-70
2022/07/03 00:49:43;;;;;;;3.53;1.80;;;16.80;99.90;;;;;;5064497;28;20020;-70
2022/07/03 00:52:11;;;;;;;1.83;1.73;;;16.80;99.90;;;;;;5048916;28;20043;-69
2022/07/03 00:54:41;;;;;;;2.78;2.10;;;16.70;99.90;;;;;;5044089;28;20052;-70
2022/07/03 00:57:13;;;;;;;2.40;2.20;;;16.70;99.90;;;;;;5052451;28;20431;-70
2022/07/03 00:59:39;;;;;;;3.50;1.98;;;16.70;99.90;;;;;;5065277;28;20025;-70
2022/07/03 01:02:08;;;;;;;3.08;2.00;;;16.60;99.90;;;;;;5057507;28;20033;-70
2022/07/03 01:04:47;;;;;;;2.20;1.80;;;16.60;99.90;;;;;;5052388;28;20037;-70
2022/07/03 01:07:28;;;;;;;1.63;1.52;;;16.60;99.90;;;;;;5048105;28;20096;-70
2022/07/03 01:10:29;;;;;;;4.47;2.30;;;16.50;99.90;;;;;;5052189;28;20057;-70
2022/07/03 01:13:12;;;;;;;2.00;1.77;;;16.40;99.90;;;;;;5070642;28;20583;-70
2022/07/03 01:16:06;;;;;;;4.55;2.08;;;16.50;99.90;;;;;;5056385;28;20100;-70
2022/07/03 01:18:56;;;;;;;2.63;2.25;;;16.40;99.90;;;;;;5045500;28;20553;-70
2022/07/03 01:21:34;;;;;;;3.38;2.30;;;16.40;99.90;;;;;;5031833;28;20049;-70
2022/07/03 01:24:24;;;;;;;2.40;2.20;;;16.30;99.90;;;;;;5028924;28;20034;-70
2022/07/03 01:27:00;;;;;;;3.92;2.28;;;16.40;99.90;;;;;;5035990;28;20029;-71
2022/07/03 01:29:59;;;;;;;5.18;2.45;;;16.30;99.90;;;;;;5050786;28;20530;-71
2022/07/03 01:32:38;;;;;;;3.10;2.60;;;16.30;99.90;;;;;;5034302;28;20036;-71
2022/07/03 01:35:06;;;;;;;4.28;2.78;;;16.20;99.90;;;;;;5039919;28;20043;-71
2022/07/03 01:37:35;;;;;;;5.38;2.58;;;16.30;99.90;;;;;;5048253;28;20091;-70
2022/07/03 01:40:03;;;;;;;3.58;2.80;;;16.20;99.90;;;;;;5030009;28;20025;-70
2022/07/03 01:42:33;;;;;;;3.05;2.45;;;16.10;99.90;;;;;;5027082;28;20034;-70
2022/07/03 01:45:00;;;;;;;2.63;2.35;;;16.10;99.90;;;;;;5048556;28;20025;-70
2022/07/03 01:47:26;;;;;;;2.63;2.35;;;16.10;99.90;;;;;;5038134;28;20033;-69
2022/07/03 01:49:54;;;;;;;3.10;2.78;;;16.10;99.90;;;;;;5031395;28;20030;-71
2022/07/03 01:52:21;;;;;;;3.75;2.67;;;16.10;99.90;;;;;;5031682;28;20037;-71
2022/07/03 01:54:48;;;;;;;5.85;3.03;;;16.10;99.90;;;;;;5031135;28;20029;-71
2022/07/03 01:57:14;;;;;;;3.70;2.65;;;16.10;99.90;;;;;;5025159;28;20030;-71
2022/07/03 01:59:40;;;;;;;3.28;2.85;;;16.00;99.90;;;;;;5030579;28;20029;-71
2022/07/03 02:02:24;;;;;;;3.45;2.40;;;16.00;99.90;;;;;;5031412;28;20494;-71
2022/07/03 02:05:08;;;;;;;4.82;2.58;;;16.00;99.90;;;;;;5028796;28;20087;-71
2022/07/03 02:07:57;;;;;;;3.25;2.95;;;16.00;99.90;;;;;;5039105;28;20087;-71
2022/07/03 02:10:29;;;;;;;3.78;2.63;;;16.00;99.90;;;;;;5031848;28;20100;-71
2022/07/03 02:13:02;;;;;;;3.42;2.67;;;16.00;99.90;;;;;;5034647;28;20132;-71
2022/07/03 02:15:32;;;;;;;4.65;3.03;;;15.90;99.90;;;;;;5023890;28;20025;-72
2022/07/03 02:18:06;;;;;;;3.88;2.65;;;15.90;99.90;;;;;;5028619;28;20032;-72
2022/07/03 02:20:39;;;;;;;3.78;2.45;;;15.80;99.90;;;;;;5065674;27;20044;-72
2022/07/03 02:23:07;;;;;;;3.25;2.45;;;15.80;99.90;;;;;;5069726;28;20028;-73
2022/07/03 02:25:39;;;;;;;3.65;2.97;;;15.80;99.90;;;;;;5068092;28;20028;-73
2022/07/03 02:28:08;;;;;;;2.83;2.60;;;15.80;99.90;;;;;;5051498;28;20219;-71
2022/07/03 02:30:41;;;;;;;3.10;2.70;;;15.80;99.90;;;;;;5069105;28;20032;-73
2022/07/03 02:33:11;;;;;;;5.38;2.85;;;15.70;99.90;;;;;;5047463;28;20040;-73
2022/07/03 02:35:37;;;;;;;3.10;2.40;;;15.70;99.90;;;;;;5049183;28;20397;-73
2022/07/03 02:38:17;;;;;;;2.97;2.63;;;15.70;99.90;;;;;;5050020;28;20035;-76
2022/07/03 02:40:49;;;;;;;3.53;2.10;;;15.70;99.90;;;;;;5049493;28;20059;-73
2022/07/03 02:43:25;;;;;;;2.97;2.67;;;15.60;99.90;;;;;;5050433;28;20075;-73
2022/07/03 02:46:48;;;;;;;3.70;2.53;;;15.60;99.90;;;;;;5065144;28;20457;-73
2022/07/03 02:48:59;;;;;;;2.78;2.38;;;15.60;99.90;;;;;;5042367;28;20059;-73
2022/07/03 02:51:39;;;;;;;2.90;2.45;;;15.60;99.90;;;;;;5064729;28;20440;-74
2022/07/03 02:54:17;;;;;;;2.72;2.38;;;15.60;99.90;;;;;;5070866;28;20029;-73
2022/07/03 02:57:07;;;;;;;2.78;2.53;;;15.60;99.90;;;;;;5069570;28;20033;-74
2022/07/03 02:59:35;;;;;;;3.15;2.80;;;15.60;99.90;;;;;;5041136;28;20091;-73
2022/07/03 03:02:12;;;;;;;2.45;2.25;;;15.60;99.90;;;;;;5067911;28;20025;-72
2022/07/03 03:04:43;;;;;;;3.40;2.63;;;15.50;99.90;;;;;;5057125;28;20115;-72
2022/07/03 03:07:16;;;;;;;3.50;2.22;;;15.50;99.90;;;;;;5060413;28;20025;-73
2022/07/03 03:09:42;;;;;;;2.28;2.08;;;15.50;99.90;;;;;;5069022;28;20115;-73
2022/07/03 03:12:09;;;;;;;3.28;2.78;;;15.50;99.90;;;;;;5051938;28;20037;-72
2022/07/03 03:14:43;;;;;;;2.53;2.33;;;15.50;99.90;;;;;;5051193;28;20029;-72
2022/07/03 03:17:16;;;;;;;2.90;2.28;;;15.40;99.90;;;;;;5051297;28;20036;-73
2022/07/03 03:19:51;;;;;;;3.33;2.60;;;15.40;99.90;;;;;;5051567;28;20056;-73
2022/07/03 03:22:22;;;;;;;2.47;2.28;;;15.40;99.90;;;;;;5042156;28;20048;-73
2022/07/03 03:24:47;;;;;;;4.28;2.40;;;15.40;99.90;;;;;;5050251;28;20029;-73
2022/07/03 03:27:13;;;;;;;3.08;2.28;;;15.40;99.90;;;;;;5051561;28;20505;-73
2022/07/03 03:29:40;;;;;;;4.25;2.67;;;15.40;99.90;;;;;;5052303;28;20111;-72
2022/07/03 03:32:06;;;;;;;3.22;2.53;;;15.40;99.90;;;;;;5053936;28;20029;-72
2022/07/03 03:34:33;;;;;;;3.00;2.28;;;15.40;99.90;;;;;;5056127;28;20380;-72
2022/07/03 03:36:59;;;;;;;2.60;2.40;;;15.40;99.90;;;;;;5061870;28;20404;-72
2022/07/03 03:39:25;;;;;;;2.63;2.40;;;15.40;99.90;;;;;;5054904;28;20047;-72
2022/07/03 03:41:52;;;;;;;3.45;2.22;;;15.40;99.90;;;;;;5053443;28;20466;-72
2022/07/03 03:44:18;;;;;;;2.55;2.30;;;15.40;99.90;;;;;;5056700;28;20029;-72
2022/07/03 03:46:44;;;;;;;4.63;2.40;;;15.40;99.90;;;;;;5065660;28;20373;-72
2022/07/03 03:49:09;;;;;;;2.47;2.28;;;15.40;99.90;;;;;;5053666;28;20385;-72
2022/07/03 03:51:35;;;;;;;3.65;2.30;;;15.40;99.90;;;;;;5053888;28;20386;-71
2022/07/03 03:54:03;;;;;;;2.47;1.95;;;15.40;99.90;;;;;;5046760;28;20034;-71
2022/07/03 03:56:29;;;;;;;2.55;2.20;;;15.40;99.90;;;;;;5061496;28;20021;-71
2022/07/03 03:58:54;;;;;;;3.33;2.05;;;15.40;99.90;;;;;;5072923;28;20025;-72
2022/07/03 04:01:20;;;;;;;2.85;2.60;;;15.40;99.90;;;;;;5067934;28;20044;-72
2022/07/03 04:03:45;;;;;;;3.00;2.20;;;15.50;99.90;;;;;;5060927;28;20024;-73
2022/07/03 04:06:11;;;;;;;3.53;1.95;;;15.50;99.90;;;;;;5069519;28;20062;-72
2022/07/03 04:08:37;;;;;;;3.25;2.25;;;15.50;99.90;;;;;;5068867;28;20048;-72
2022/07/03 04:11:02;;;;;;;2.58;2.35;;;15.60;99.90;;;;;;5050054;28;20254;-72
2022/07/03 04:13:28;;;;;;;2.70;2.47;;;15.60;99.90;;;;;;5053588;28;20075;-72
2022/07/03 04:15:54;;;;;;;3.03;1.90;;;15.60;99.90;;;;;;5052589;28;20500;-72
2022/07/03 04:18:20;;;;;;;3.10;2.15;;;15.60;99.90;;;;;;5053478;28;20060;-72
2022/07/03 04:20:46;;;;;;;5.72;1.95;;;15.60;99.90;;;;;;5056285;28;20079;-73
2022/07/03 04:23:12;;;;;;;1.92;1.83;;;15.70;99.90;;;;;;5073018;28;20040;-72
2022/07/03 04:25:38;;;;;;;3.28;2.08;;;15.70;99.90;;;;;;5071259;28;20086;-72
2022/07/03 04:28:04;;;;;;;2.15;1.95;;;15.70;99.90;;;;;;5050735;28;20105;-72
2022/07/03 04:30:29;;;;;;;2.22;2.03;;;15.70;99.90;;;;;;5053534;28;20033;-71
2022/07/03 04:32:55;;;;;;;2.42;2.13;;;15.80;99.90;;;;;;5052637;28;20033;-72
2022/07/03 04:35:21;;;;;;;3.13;2.30;;;15.80;99.90;;;;;;5052860;28;20040;-72
2022/07/03 04:37:47;;;;;;;2.42;2.22;;;15.90;99.90;;;;;;5052882;28;20029;-73
2022/07/03 04:40:14;;;;;;;2.17;1.98;;;16.00;99.90;;;;;;5054608;28;20033;-73
2022/07/03 04:42:39;;;;;;;2.55;2.30;;;16.10;99.90;;;;;;5058800;28;20044;-72
2022/07/03 04:45:06;;;;;;;5.32;2.33;;;16.20;99.90;;;;;;5046161;28;20608;-73
2022/07/03 04:47:32;;;;;;;4.72;2.15;;;16.30;99.90;;;;;;5053286;28;20159;-72
2022/07/03 04:49:58;;;;;;;2.58;2.38;;;16.40;99.90;;;;;;5067173;28;20497;-72
2022/07/03 04:52:24;;;;;;;5.55;2.25;;;16.40;99.90;;;;;;5072209;28;20040;-72
2022/07/03 04:54:49;;;;;;;2.25;2.05;;;16.60;99.90;;;;;;5072140;28;20025;-73
2022/07/03 04:57:15;;;;;;;2.40;2.20;;;16.70;99.90;;;;;;5072548;28;20093;-72
2022/07/03 04:59:41;;;;;;;2.13;1.90;;;16.70;99.90;;;;;;5065981;28;20098;-73
2022/07/03 05:02:07;;;;;;;3.22;2.50;;;16.90;99.90;;;;;;5058056;28;20043;-73
2022/07/03 05:04:33;;;;;;;5.65;2.60;;;17.00;99.90;;;;;;5066594;28;20032;-74
2022/07/03 05:06:59;;;;;;;2.95;2.63;;;17.10;99.90;;;;;;5069570;28;20025;-73
2022/07/03 05:09:25;;;;;;;3.35;2.55;;;17.30;99.90;;;;;;5072029;28;20051;-73
2022/07/03 05:11:50;;;;;;;4.05;2.35;;;17.50;99.90;;;;;;5071215;28;20103;-73
2022/07/03 05:14:16;;;;;;;2.58;2.38;;;17.70;99.90;;;;;;5072325;28;20032;-73
2022/07/03 05:16:42;;;;;;;2.88;2.58;;;18.00;99.90;;;;;;5071924;28;20060;-73
2022/07/03 05:19:07;;;;;;;2.40;2.20;;;18.10;99.90;;;;;;5054247;27;20047;-72
2022/07/03 05:21:33;;;;;;;2.38;2.03;;;18.20;99.90;;;;;;5071789;28;20036;-71
2022/07/03 05:23:58;;;;;;;2.30;2.00;;;18.40;99.90;;;;;;5071643;28;20024;-72
2022/07/03 05:26:24;;;;;;;5.20;2.60;;;18.50;99.90;;;;;;5066829;28;20029;-72
2022/07/03 05:28:50;;;;;;;2.63;2.13;;;18.60;99.90;;;;;;5056318;28;20029;-73
2022/07/03 05:31:15;;;;;;;3.72;2.25;;;18.80;99.90;;;;;;5057069;28;20186;-72
2022/07/03 05:33:42;;;;;;;2.85;2.13;;;18.90;99.90;;;;;;5057971;28;20557;-72
2022/07/03 05:36:07;;;;;;;2.38;2.08;;;19.00;99.90;;;;;;5068734;28;20092;-72
2022/07/03 05:41:18;;;;;;;1.63;1.50;;;19.20;99.90;;;;;;5071140;28;20142;-72
2022/07/03 05:43:44;;;;;;;4.55;2.20;;;19.40;99.90;;;;;;5072129;28;20037;-72
2022/07/03 05:46:10;;;;;;;1.30;1.20;;;19.70;99.90;;;;;;5070791;28;20032;-73
2022/07/03 05:48:36;;;;;;;1.27;1.15;;;20.00;99.90;;;;;;5060682;28;20098;-72
2022/07/03 05:51:02;;;;;;;1.48;1.08;;;20.20;99.90;;;;;;5063217;28;20032;-72
2022/07/03 05:53:28;;;;;;;1.30;1.20;;;20.50;99.90;;;;;;5071607;28;20074;-73
2022/07/03 05:55:53;;;;;;;0.98;0.95;;;20.60;99.90;;;;;;5053083;28;20113;-72
2022/07/03 05:58:19;;;;;;;1.50;1.30;;;20.90;99.90;;;;;;5071196;28;20028;-72
2022/07/03 06:00:45;;;;;;;1.35;1.25;;;21.00;99.90;;;;;;5061858;28;20065;-72
2022/07/03 06:03:10;;;;;;;1.10;0.95;;;21.20;99.90;;;;;;5064745;28;20024;-72
2022/07/03 06:05:36;;;;;;;1.40;1.30;;;21.40;99.90;;;;;;5066206;28;20032;-73
2022/07/03 06:08:02;;;;;;;4.82;2.22;;;21.60;99.90;;;;;;5069886;28;20020;-73
2022/07/03 06:10:29;;;;;;;4.15;2.13;;;21.80;99.90;;;;;;5071063;28;20380;-72
2022/07/03 06:12:54;;;;;;;2.83;2.00;;;21.80;99.90;;;;;;5069604;28;20031;-72
2022/07/03 06:15:20;;;;;;;3.92;2.40;;;21.80;99.90;;;;;;5071343;28;20029;-72
2022/07/03 06:17:46;;;;;;;2.75;1.80;;;21.70;99.90;;;;;;5071704;28;20100;-73
2022/07/03 06:20:12;;;;;;;2.40;1.63;;;21.70;99.90;;;;;;5059663;28;20056;-72
2022/07/03 06:22:40;;;;;;;3.00;2.05;;;21.70;99.90;;;;;;5042939;28;20099;-73
2022/07/03 06:25:06;;;;;;;2.10;1.73;;;21.80;99.90;;;;;;5050580;28;20032;-73
2022/07/03 06:27:32;;;;;;;1.98;1.77;;;21.90;99.90;;;;;;5033376;28;20375;-71
2022/07/03 06:29:58;;;;;;;2.22;1.77;;;21.90;99.90;;;;;;5049900;28;20063;-72
2022/07/03 06:32:23;;;;;;;5.15;1.60;;;22.00;99.90;;;;;;5051240;28;20041;-72
2022/07/03 06:34:49;;;;;;;3.58;1.88;;;22.20;99.90;;;;;;5036539;28;20024;-72
2022/07/03 06:37:15;;;;;;;2.40;1.92;;;22.30;99.90;;;;;;5036192;28;20096;-72
2022/07/03 06:39:41;;;;;;;1.67;1.58;;;22.50;99.90;;;;;;5038426;28;20490;-73
2022/07/03 06:42:07;;;;;;;1.73;1.52;;;22.60;99.90;;;;;;5041503;28;20438;-72
2022/07/03 06:44:33;;;;;;;4.43;1.20;;;22.70;99.90;;;;;;5043824;28;20037;-72
2022/07/03 06:47:02;;;;;;;1.35;0.90;;;22.80;99.90;;;;;;5038018;28;20021;-73
2022/07/03 06:49:29;;;;;;;2.53;0.93;;;23.00;99.90;;;;;;5037979;28;20090;-73
2022/07/03 06:51:54;;;;;;;1.17;1.08;;;23.10;99.90;;;;;;5049169;28;20118;-75
2022/07/03 06:54:20;;;;;;;1.00;0.90;;;23.20;99.90;;;;;;5048117;28;20024;-72
2022/07/03 06:56:46;;;;;;;2.00;0.68;;;23.40;99.80;;;;;;5050424;28;20026;-73
2022/07/03 06:59:11;;;;;;;3.20;0.93;;;23.60;99.40;;;;;;5049764;28;20031;-73
2022/07/03 07:01:37;;;;;;;2.88;1.05;;;23.70;99.10;;;;;;5049951;28;20124;-73
2022/07/03 07:04:03;;;;;;;0.93;0.93;;;23.80;98.30;;;;;;5047121;28;20028;-73
2022/07/03 07:06:29;;;;;;;0.90;0.90;;;24.00;98.70;;;;;;5054061;28;20036;-73
2022/07/03 07:08:54;;;;;;;3.33;1.20;;;24.10;98.60;;;;;;5053368;28;20099;-75
2022/07/03 07:11:20;;;;;;;3.45;1.60;;;24.30;98.40;;;;;;5038439;28;20045;-73
2022/07/03 07:13:46;;;;;;;2.08;0.98;;;24.40;97.60;;;;;;5053039;28;20029;-73
2022/07/03 07:16:11;;;;;;;1.15;1.02;;;24.50;97.70;;;;;;5053662;28;20819;-74
2022/07/03 07:18:39;;;;;;;3.55;1.20;;;24.60;98.30;;;;;;5054361;28;20029;-72
2022/07/03 07:21:05;;;;;;;1.15;1.05;;;24.70;97.60;;;;;;5053039;28;20045;-74
2022/07/03 07:23:30;;;;;;;1.60;1.23;;;24.80;96.90;;;;;;5067116;28;20066;-73
2022/07/03 07:25:56;;;;;;;0.98;0.98;;;24.80;96.80;;;;;;5072327;28;20032;-76
2022/07/03 07:28:21;;;;;;;1.00;1.00;;;24.90;96.40;;;;;;5062213;28;20430;-72
2022/07/03 07:30:47;;;;;;;0.93;0.93;;;25.00;96.30;;;;;;5073521;28;20105;-73
2022/07/03 07:33:13;;;;;;;2.78;0.90;;;25.10;95.10;;;;;;5072940;28;20107;-73
2022/07/03 07:35:38;;;;;;;0.82;0.80;;;25.20;94.50;;;;;;5069994;28;20024;-73
2022/07/03 07:38:04;;;;;;;6.57;1.33;;;25.30;94.00;;;;;;5072469;28;20058;-74
2022/07/03 07:40:29;;;;;;;1.85;0.80;;;25.40;92.70;;;;;;5071756;28;20390;-72
2022/07/03 07:42:55;;;;;;;3.60;0.90;;;25.40;92.30;;;;;;5058831;28;20039;-77
2022/07/03 07:45:22;;;;;;;1.42;1.00;;;25.60;92.80;;;;;;5054618;28;20090;-78
2022/07/03 07:47:47;;;;;;;2.85;1.05;;;25.60;92.60;;;;;;5057008;28;20017;-76
2022/07/03 07:50:14;;;;;;;1.30;1.00;;;25.70;91.60;;;;;;5052900;28;20080;-78
2022/07/03 07:52:40;;;;;;;0.95;0.70;;;25.90;91.20;;;;;;5054431;28;20037;-77
2022/07/03 07:55:07;;;;;;;4.30;1.10;;;25.80;91.20;;;;;;5068277;28;20082;-76
2022/07/03 07:57:39;;;;;;;2.28;1.23;;;26.00;91.00;;;;;;5073807;28;20112;-79
2022/07/03 08:00:07;;;;;;;1.15;0.88;;;26.00;91.00;;;;;;5049585;28;20111;-76
2022/07/03 08:05:35;;;;;;;0.82;0.80;;;26.20;89.50;;;;;;5060636;28;20503;-83
2022/07/03 08:08:04;;;;;;;2.42;0.80;;;26.20;86.60;;;;;;5060039;28;20029;-84
2022/07/03 08:10:37;;;;;;;0.70;0.70;;;26.20;87.30;;;;;;5063434;28;20029;-81
2022/07/03 08:13:03;;;;;;;3.38;0.90;;;26.30;87.80;;;;;;5069177;28;20029;-85
2022/07/03 08:15:29;;;;;;;2.63;0.98;;;26.40;96.40;;;;;;5062134;28;20025;-84
2022/07/03 08:17:55;;;;;;;2.25;0.90;;;26.50;95.80;;;;;;5060292;28;20040;-78
2022/07/03 08:20:20;;;;;;;1.58;0.85;;;26.60;98.60;;;;;;5065319;28;20059;-85
2022/07/03 08:22:46;;;;;;;0.70;0.70;;;26.70;99.10;;;;;;5054245;28;20551;-85
2022/07/03 08:25:11;;;;;;;3.22;0.75;;;26.80;98.70;;;;;;5059495;28;20032;-86
2022/07/03 08:27:37;;;;;;;2.05;0.98;;;26.80;99.10;;;;;;5064580;28;20033;-85
2022/07/03 08:30:03;;;;;;;0.68;0.65;;;26.90;98.90;;;;;;5053218;28;20040;-82
2022/07/03 08:32:29;;;;;;;2.17;0.65;;;26.90;98.50;;;;;;5054427;28;20033;-83
2022/07/03 08:34:55;;;;;;;6.80;1.00;;;26.90;84.20;;;;;;5060455;28;20104;-82
2022/07/03 08:37:20;;;;;;;1.42;0.75;;;27.00;78.00;;;;;;5072514;28;20060;-84
2022/07/03 08:39:46;;;;;;;1.15;0.80;;;27.00;77.80;;;;;;5072620;28;20355;-82
2022/07/03 08:42:12;;;;;;;0.82;0.60;;;27.00;77.30;;;;;;5068719;28;20478;-85
2022/07/03 08:44:39;;;;;;;2.67;0.80;;;27.00;75.40;;;;;;5060100;28;20033;-85
2022/07/03 08:47:08;;;;;;;1.55;0.80;;;27.00;75.40;;;;;;5050537;28;20028;-85
2022/07/03 08:49:34;;;;;;;1.30;0.90;;;27.20;96.60;;;;;;5053807;28;20104;-84
2022/07/03 08:52:01;;;;;;;1.60;0.80;;;27.30;97.50;;;;;;5052946;28;20033;-82
2022/07/03 08:54:26;;;;;;;1.55;0.70;;;27.40;97.00;;;;;;5053004;28;20036;-85
2022/07/03 08:56:52;;;;;;;3.70;0.70;;;27.40;96.80;;;;;;5053004;28;20029;-89
2022/07/03 08:59:21;;;;;;;2.22;0.80;;;27.50;97.50;;;;;;5052164;28;20660;-85
2022/07/03 09:01:47;;;;;;;3.00;0.55;;;;;;;;;;5061925;28;20116;-86
2022/07/03 09:04:13;;;;;;;0.60;0.60;;;27.70;66.90;;;;;;5055658;28;20024;-82
2022/07/03 09:06:43;;;;;;;0.55;0.47;;;27.80;67.10;;;;;;5054665;28;20109;-79
2022/07/03 09:09:09;;;;;;;2.00;0.73;;;27.80;68.30;;;;;;5051399;28;20029;-83
2022/07/03 09:11:37;;;;;;;0.93;0.75;;;27.90;68.80;;;;;;5051822;28;20041;-82
2022/07/03 09:14:06;;;;;;;3.38;0.90;;;28.00;67.70;;;;;;5050518;28;20389;-84
2022/07/03 09:16:34;;;;;;;2.17;0.60;;;28.10;68.70;;;;;;5051183;28;20041;-83
2022/07/03 09:19:00;;;;;;;0.95;0.75;;;28.10;67.30;;;;;;5034264;28;20029;-78
2022/07/03 09:21:34;;;;;;;1.05;0.95;;;28.20;66.60;;;;;;5043287;28;20500;-90
2022/07/03 09:24:04;;;;;;;2.50;0.90;;;28.30;64.60;;;;;;5039044;28;20056;-81
2022/07/03 09:26:29;;;;;;;0.75;0.60;;;28.30;65.90;;;;;;5037206;28;20026;-81
2022/07/03 09:28:55;;;;;;;2.53;0.75;;;28.40;65.00;;;;;;5041671;28;20083;-81
2022/07/03 09:31:26;;;;;;;0.77;0.68;;;28.30;64.90;;;;;;5041684;28;20573;-81
2022/07/03 09:33:56;;;;;;;0.57;0.57;;;28.40;64.50;;;;;;5038938;28;20036;-77
2022/07/03 09:36:23;;;;;;;;;;;28.50;63.90;;;;;;5042697;28;20087;-80
2022/07/03 09:38:49;;;;;;;0.50;0.30;;;28.60;64.00;;;;;;5045522;28;19909;-80
2022/07/03 09:41:14;;;;;;;2.80;0.93;;;28.70;62.90;;;;;;5052134;28;20362;-81
2022/07/03 09:43:44;;;;;;;0.68;0.57;;;28.80;62.40;;;;;;5038409;28;20025;-82
2022/07/03 09:46:10;;;;;;;1.45;1.02;;;28.80;62.00;;;;;;5024023;28;20030;-79
2022/07/03 09:48:43;;;;;;;0.77;0.75;;;28.80;62.20;;;;;;5041948;28;20057;-79
2022/07/03 09:51:12;;;;;;;0.93;0.70;;;28.90;61.60;;;;;;5037578;28;20025;-84
2022/07/03 09:53:51;;;;;;;0.40;0.40;;;29.00;61.00;;;;;;5040782;28;20061;-87
2022/07/03 09:56:20;;;;;;;4.95;0.80;;;29.00;60.60;;;;;;5040847;28;20035;-80
2022/07/03 09:59:18;;;;;;;0.70;0.70;;;29.10;60.60;;;;;;5038161;28;20068;-80
2022/07/03 10:01:46;;;;;;;4.55;0.73;;;29.20;59.90;;;;;;5015384;28;20132;-82
2022/07/03 10:04:18;;;;;;;0.77;0.52;;;29.10;59.90;;;;;;5039086;28;20121;-81
2022/07/03 10:06:58;;;;;;;0.80;0.52;;;29.10;60.10;;;;;;5040285;28;20021;-81
2022/07/03 10:09:23;;;;;;;2.15;0.95;;;29.20;60.80;;;;;;5033084;28;20465;-81
2022/07/03 10:11:50;;;;;;;1.20;0.70;;;29.20;60.80;;;;;;5040501;28;20040;-82
2022/07/03 10:14:20;;;;;;;3.17;0.70;;;29.30;60.70;;;;;;5040311;28;20414;-78
2022/07/03 10:16:47;;;;;;;3.03;0.80;;;29.30;60.90;;;;;;5041874;28;20036;-82
2022/07/03 10:19:16;;;;;;;0.90;0.70;;;29.40;60.70;;;;;;5038912;28;20029;-87
2022/07/03 10:21:43;;;;;;;2.22;0.80;;;29.50;60.90;;;;;;5050035;28;20063;-78
2022/07/03 10:24:10;;;;;;;2.17;0.82;;;29.60;61.00;;;;;;5042913;28;20450;-77
2022/07/03 10:26:36;;;;;;;0.85;0.65;;;29.60;61.50;;;;;;5051009;28;20029;-81
2022/07/03 10:29:02;;;;;;;0.85;0.60;;;29.70;61.80;;;;;;5049312;28;20033;-73
2022/07/03 10:31:28;;;;;;;2.00;0.75;;;29.80;60.60;;;;;;5042120;28;20040;-74
2022/07/03 10:33:54;;;;;;;0.80;0.77;;;29.80;60.50;;;;;;5046021;28;20517;-73
2022/07/03 10:36:21;;;;;;;0.73;0.70;;;29.70;60.50;;;;;;5043177;28;20037;-74
2022/07/03 10:38:49;;;;;;;1.52;0.80;;;29.90;60.80;;;;;;5050499;28;20032;-71
2022/07/03 10:46:57;;;;;;;0.70;0.70;;;30.10;59.90;;;;;;5039134;28;20036;-71
2022/07/03 10:49:23;;;;;;;0.70;0.70;;;30.10;59.80;;;;;;5050835;28;20036;-70
2022/07/03 10:51:55;;;;;;;2.22;0.80;;;30.00;60.50;;;;;;5063626;28;20036;-70
2022/07/03 10:54:33;;;;;;;0.77;0.77;;;30.10;60.70;;;;;;5070248;28;20029;-71
2022/07/03 10:57:01;;;;;;;0.70;0.70;;;30.10;60.20;;;;;;5070665;28;20094;-71
2022/07/03 10:59:36;;;;;;;0.70;0.70;;;30.30;60.80;;;;;;5069469;28;20033;-71
2022/07/03 11:02:32;;;;;;;1.95;0.50;;;30.50;60.20;;;;;;5044635;28;20531;-71
2022/07/03 11:05:01;;;;;;;0.60;0.60;;;30.60;58.60;;;;;;5047672;28;20025;-70
2022/07/03 11:07:46;;;;;;;1.98;1.15;;;30.60;59.30;;;;;;5061401;28;20630;-71
2022/07/03 11:10:15;;;;;;;1.25;1.00;;;30.60;59.80;;;;;;5043504;28;20043;-70
2022/07/03 11:12:58;;;;;;;1.20;0.70;;;30.60;59.50;;;;;;5061232;28;20103;-70
2022/07/03 11:15:44;;;;;;;0.98;0.90;;;30.70;58.90;;;;;;5069301;28;20094;-70
2022/07/03 11:18:17;;;;;;;2.10;0.73;;;30.80;59.40;;;;;;5051603;28;20481;-71
2022/07/03 11:20:42;;;;;;;2.88;0.80;;;30.80;59.50;;;;;;5050852;28;20041;-70
2022/07/03 11:23:26;;;;;;;0.93;0.77;;;30.90;58.70;;;;;;5050121;28;20462;-72
2022/07/03 11:25:56;;;;;;;1.05;0.70;;;30.90;59.50;;;;;;5050638;28;20025;-72
2022/07/03 11:28:31;;;;;;;4.45;1.42;;;30.90;59.50;;;;;;5049519;28;20040;-70
2022/07/03 11:33:56;;;;;;;2.47;1.02;;;31.10;57.60;;;;;;5030626;28;20033;-71
2022/07/03 11:36:21;;;;;;;3.55;2.10;;;31.20;56.10;;;;;;5046845;28;20512;-71
2022/07/03 11:38:59;;;;;;;0.85;0.85;;;31.10;56.60;;;;;;5049701;28;20037;-71
2022/07/03 11:41:27;;;;;;;0.82;0.57;;;31.00;56.80;;;;;;5046515;28;20033;-72
2022/07/03 11:43:54;;;;;;;1.67;0.93;;;31.10;56.80;;;;;;5048170;28;20064;-71
2022/07/03 11:46:28;;;;;;;5.47;0.80;;;31.30;56.90;;;;;;5033621;28;20104;-70
2022/07/03 11:49:10;;;;;;;1.55;1.17;;;31.40;57.70;;;;;;5037406;28;20038;-71
2022/07/03 11:51:38;;;;;;;0.88;0.88;;;31.50;58.10;;;;;;5037322;28;20087;-72
2022/07/03 11:54:04;;;;;;;0.70;0.70;;;31.40;57.00;;;;;;5048234;28;20056;-71
2022/07/03 11:56:31;;;;;;;1.05;0.85;;;31.20;57.50;;;;;;5044091;28;20029;-71
2022/07/03 11:58:59;;;;;;;1.77;0.95;;;31.10;57.30;;;;;;5050919;28;20047;-72
2022/07/03 12:01:27;;;;;;;1.25;0.70;;;31.10;58.00;;;;;;5047727;28;20465;-71
2022/07/03 12:04:08;;;;;;;0.93;0.70;;;31.30;58.60;;;;;;5043859;28;20033;-70
2022/07/03 12:06:43;;;;;;;3.70;0.90;;;31.60;56.90;;;;;;5042505;28;20068;-71
2022/07/03 12:09:35;;;;;;;1.58;0.90;;;31.80;58.20;;;;;;5031694;28;20056;-71
2022/07/03 12:12:03;;;;;;;0.63;0.63;;;32.00;57.20;;;;;;5043712;28;20486;-71
2022/07/03 12:14:49;;;;;;;3.00;0.73;;;32.20;62.20;;;;;;5047609;28;20037;-71
2022/07/03 12:17:17;;;;;;;0.70;0.70;;;;;;;;;;5052495;28;20037;-72
2022/07/03 12:19:46;;;;;;;4.03;0.85;;;;;;;;;;5058283;28;20053;-72
2022/07/03 12:22:15;;;;;;;0.80;0.80;;;33.00;55.30;;;;;;5072252;28;20036;-70
2022/07/03 12:24:41;;;;;;;2.17;0.80;;;33.00;54.80;;;;;;5068099;28;20047;-70
2022/07/03 12:27:07;;;;;;;1.40;0.70;;;33.10;55.90;;;;;;5073127;28;20037;-71
2022/07/03 12:29:33;;;;;;;0.80;0.80;;;33.00;55.60;;;;;;5071044;28;20035;-71
2022/07/03 12:31:59;;;;;;;0.93;0.68;;;33.10;55.00;;;;;;5072701;28;20060;-69
2022/07/03 12:34:24;;;;;;;0.90;0.85;;;33.10;54.00;;;;;;5069653;28;20129;-70
2022/07/03 12:37:00;;;;;;;1.75;0.80;;;32.90;55.00;;;;;;5073427;28;20028;-71
2022/07/03 12:39:45;;;;;;;1.33;0.65;;;33.00;55.00;;;;;;5072216;28;20032;-70
2022/07/03 12:42:23;;;;;;;2.03;0.95;;;33.00;54.20;;;;;;5065692;28;20029;-71
2022/07/03 12:45:03;;;;;;;1.92;0.70;;;32.90;54.70;;;;;;5060612;28;20020;-71
2022/07/03 12:47:29;;;;;;;1.95;1.13;;;32.90;55.00;;;;;;5069223;28;20474;-71
2022/07/03 12:50:00;;;;;;;0.50;0.50;;;33.00;54.10;;;;;;5072662;28;20493;-70
2022/07/03 12:52:27;;;;;;;0.70;0.60;;;33.10;55.10;;;;;;5072061;28;20048;-70
2022/07/03 12:54:54;;;;;;;2.35;0.63;;;33.10;54.30;;;;;;5072733;28;20032;-71
2022/07/03 13:00:17;;;;;;;1.70;0.80;;;33.30;54.40;;;;;;5071573;28;20044;-72
2022/07/03 13:02:47;;;;;;;1.50;0.90;;;33.40;53.30;;;;;;5071854;28;20024;-72
2022/07/03 13:05:22;;;;;;;0.98;0.82;;;33.40;53.10;;;;;;5069304;28;20025;-72
2022/07/03 13:07:53;;;;;;;2.10;0.60;;;33.10;52.10;;;;;;5072447;28;20020;-72
2022/07/03 13:10:21;;;;;;;0.90;0.70;;;33.00;54.80;;;;;;5071612;28;20037;-72
2022/07/03 13:12:52;;;;;;;2.25;0.80;;;33.10;53.00;;;;;;5071830;28;20036;-72
2022/07/03 13:15:21;;;;;;;1.42;0.65;;;33.00;53.50;;;;;;5057527;28;20043;-72